sensor_id;sensor_type;location;lat;lon;timestamp;pressure;altitude;pressure_sealevel;temperature;humidity
45541;BME280;31265;49.680;8.608;2023-03-04T00:00:50;101320.28;;;-1.38;100.00
45541;BME280;31265;49.680;8.608;2023-03-04T00:03:20;101325.25;;;-1.45;100.00
45541;BME280;31265;49.680;8.608;2023-03-04T00:05:48;101325.41;;;-1.58;100.00
45541;BME280;31265;49.680;8.608;2023-03-04T00:08:16;101322.81;;;-1.71;100.00
45541;BME280;31265;49.680;8.608;2023-03-04T00:10:45;101330.22;;;-1.81;100.00
45541;BME280;31265;49.680;8.608;2023-03-04T00:13:13;101328.56;;;-1.87;100.00
45541;BME280;31265;49.680;8.608;2023-03-04T00:15:42;101334.28;;;-1.95;100.00
45541;BME280;31265;49.680;8.608;2023-03-04T00:18:11;101335.63;;;-1.99;100.00
45541;BME280;31265;49.680;8.608;2023-03-04T00:20:41;101334.69;;;-2.05;100.00
45541;BME280;31265;49.680;8.608;2023-03-04T00:23:09;101344.66;;;-2.11;100.00
45541;BME280;31265;49.680;8.608;2023-03-04T00:25:38;101337.09;;;-2.17;100.00
45541;BME280;31265;49.680;8.608;2023-03-04T00:28:09;101335.59;;;-2.18;100.00
45541;BME280;31265;49.680;8.608;2023-03-04T00:30:41;101336.19;;;-2.13;100.00
45541;BME280;31265;49.680;8.608;2023-03-04T00:33:10;101331.97;;;-2.14;100.00
45541;BME280;31265;49.680;8.608;2023-03-04T00:35:41;101330.91;;;-2.17;100.00
45541;BME280;31265;49.680;8.608;2023-03-04T00:38:10;101332.09;;;-2.18;100.00
45541;BME280;31265;49.680;8.608;2023-03-04T00:40:38;101337.69;;;-2.22;100.00
45541;BME280;31265;49.680;8.608;2023-03-04T00:43:08;101342.81;;;-2.24;100.00
45541;BME280;31265;49.680;8.608;2023-03-04T00:45:36;101342.97;;;-2.27;100.00
45541;BME280;31265;49.680;8.608;2023-03-04T00:48:05;101331.03;;;-2.21;100.00
45541;BME280;31265;49.680;8.608;2023-03-04T00:50:34;101336.50;;;-2.11;100.00
45541;BME280;31265;49.680;8.608;2023-03-04T00:53:05;101342.25;;;-2.09;100.00
45541;BME280;31265;49.680;8.608;2023-03-04T00:55:33;101351.00;;;-2.05;100.00
45541;BME280;31265;49.680;8.608;2023-03-04T00:58:01;101343.91;;;-2.12;100.00
45541;BME280;31265;49.680;8.608;2023-03-04T01:00:30;101343.75;;;-2.08;100.00
45541;BME280;31265;49.680;8.608;2023-03-04T01:02:58;101338.16;;;-2.14;100.00
45541;BME280;31265;49.680;8.608;2023-03-04T01:05:26;101338.31;;;-2.08;100.00
45541;BME280;31265;49.680;8.608;2023-03-04T01:07:55;101336.66;;;-2.06;100.00
45541;BME280;31265;49.680;8.608;2023-03-04T01:10:28;101334.53;;;-2.11;100.00
45541;BME280;31265;49.680;8.608;2023-03-04T01:12:56;101332.41;;;-2.16;100.00
45541;BME280;31265;49.680;8.608;2023-03-04T01:15:26;101331.66;;;-2.17;100.00
45541;BME280;31265;49.680;8.608;2023-03-04T01:17:55;101334.50;;;-2.20;100.00
45541;BME280;31265;49.680;8.608;2023-03-04T01:20:24;101334.97;;;-2.22;100.00
45541;BME280;31265;49.680;8.608;2023-03-04T01:22:53;101330.72;;;-2.23;100.00
45541;BME280;31265;49.680;8.608;2023-03-04T01:25:21;101336.47;;;-2.30;100.00
45541;BME280;31265;49.680;8.608;2023-03-04T01:27:51;101330.09;;;-2.36;100.00
45541;BME280;31265;49.680;8.608;2023-03-04T01:30:19;101333.69;;;-2.39;100.00
45541;BME280;31265;49.680;8.608;2023-03-04T01:32:48;101325.81;;;-2.46;100.00
45541;BME280;31265;49.680;8.608;2023-03-04T01:35:19;101330.19;;;-2.49;100.00
45541;BME280;31265;49.680;8.608;2023-03-04T01:37:48;101323.38;;;-2.53;100.00
45541;BME280;31265;49.680;8.608;2023-03-04T01:40:16;101325.91;;;-2.59;100.00
45541;BME280;31265;49.680;8.608;2023-03-04T01:42:45;101321.38;;;-2.62;100.00
45541;BME280;31265;49.680;8.608;2023-03-04T01:45:16;101317.13;;;-2.63;100.00
45541;BME280;31265;49.680;8.608;2023-03-04T01:47:46;101318.03;;;-2.66;100.00
45541;BME280;31265;49.680;8.608;2023-03-04T01:50:20;101307.00;;;-2.72;100.00
45541;BME280;31265;49.680;8.608;2023-03-04T01:52:50;101304.53;;;-2.79;100.00
45541;BME280;31265;49.680;8.608;2023-03-04T01:55:23;101303.91;;;-2.83;100.00
45541;BME280;31265;49.680;8.608;2023-03-04T01:57:52;101307.84;;;-2.84;100.00
45541;BME280;31265;49.680;8.608;2023-03-04T02:00:26;101304.81;;;-2.86;100.00
45541;BME280;31265;49.680;8.608;2023-03-04T02:02:58;101307.84;;;-2.84;100.00
45541;BME280;31265;49.680;8.608;2023-03-04T02:05:27;101301.03;;;-2.89;100.00
45541;BME280;31265;49.680;8.608;2023-03-04T02:07:57;101305.25;;;-2.88;100.00
45541;BME280;31265;49.680;8.608;2023-03-04T02:10:27;101299.38;;;-2.86;100.00
45541;BME280;31265;49.680;8.608;2023-03-04T02:12:57;101296.66;;;-2.86;100.00
45541;BME280;31265;49.680;8.608;2023-03-04T02:15:29;101294.38;;;-2.88;100.00
45541;BME280;31265;49.680;8.608;2023-03-04T02:17:57;101287.44;;;-2.89;100.00
45541;BME280;31265;49.680;8.608;2023-03-04T02:20:34;101291.34;;;-2.90;100.00
45541;BME280;31265;49.680;8.608;2023-03-04T02:23:17;101288.50;;;-2.86;100.00
45541;BME280;31265;49.680;8.608;2023-03-04T02:25:51;101280.69;;;-2.84;100.00
45541;BME280;31265;49.680;8.608;2023-03-04T02:28:24;101281.59;;;-2.78;100.00
45541;BME280;31265;49.680;8.608;2023-03-04T02:30:52;101277.84;;;-2.71;100.00
45541;BME280;31265;49.680;8.608;2023-03-04T02:33:21;101279.53;;;-2.65;100.00
45541;BME280;31265;49.680;8.608;2023-03-04T02:35:49;101277.00;;;-2.59;100.00
45541;BME280;31265;49.680;8.608;2023-03-04T02:38:18;101282.75;;;-2.57;100.00
45541;BME280;31265;49.680;8.608;2023-03-04T02:40:48;101273.38;;;-2.56;100.00
45541;BME280;31265;49.680;8.608;2023-03-04T02:43:19;101274.75;;;-2.51;100.00
45541;BME280;31265;49.680;8.608;2023-03-04T02:45:52;101271.91;;;-2.48;100.00
45541;BME280;31265;49.680;8.608;2023-03-04T02:48:21;101268.16;;;-2.41;100.00
45541;BME280;31265;49.680;8.608;2023-03-04T02:50:52;101261.06;;;-2.39;100.00
45541;BME280;31265;49.680;8.608;2023-03-04T02:53:22;101267.41;;;-2.42;100.00
45541;BME280;31265;49.680;8.608;2023-03-04T02:55:52;101273.28;;;-2.43;100.00
45541;BME280;31265;49.680;8.608;2023-03-04T02:58:23;101279.91;;;-2.44;100.00
45541;BME280;31265;49.680;8.608;2023-03-04T03:00:53;101277.06;;;-2.41;100.00
45541;BME280;31265;49.680;8.608;2023-03-04T03:03:23;101278.88;;;-2.38;100.00
45541;BME280;31265;49.680;8.608;2023-03-04T03:05:52;101273.31;;;-2.34;100.00
45541;BME280;31265;49.680;8.608;2023-03-04T03:08:21;101269.09;;;-2.26;100.00
45541;BME280;31265;49.680;8.608;2023-03-04T03:10:50;101279.25;;;-2.17;100.00
45541;BME280;31265;49.680;8.608;2023-03-04T03:13:21;101280.00;;;-2.07;100.00
45541;BME280;31265;49.680;8.608;2023-03-04T03:15:51;101275.78;;;-1.99;100.00
45541;BME280;31265;49.680;8.608;2023-03-04T03:18:24;101279.13;;;-1.95;100.00
45541;BME280;31265;49.680;8.608;2023-03-04T03:20:52;101280.94;;;-1.92;100.00
45541;BME280;31265;49.680;8.608;2023-03-04T03:23:21;101272.19;;;-1.87;100.00
45541;BME280;31265;49.680;8.608;2023-03-04T03:25:51;101274.28;;;-1.82;100.00
45541;BME280;31265;49.680;8.608;2023-03-04T03:28:19;101270.34;;;-1.81;100.00
45541;BME280;31265;49.680;8.608;2023-03-04T03:30:48;101266.44;;;-1.80;100.00
45541;BME280;31265;49.680;8.608;2023-03-04T03:33:16;101266.28;;;-1.76;100.00
45541;BME280;31265;49.680;8.608;2023-03-04T03:35:46;101273.09;;;-1.71;100.00
45541;BME280;31265;49.680;8.608;2023-03-04T03:38:14;101261.16;;;-1.65;100.00
45541;BME280;31265;49.680;8.608;2023-03-04T03:40:43;101259.47;;;-1.62;100.00
45541;BME280;31265;49.680;8.608;2023-03-04T03:43:12;101257.94;;;-1.54;100.00
45541;BME280;31265;49.680;8.608;2023-03-04T03:45:40;101258.28;;;-1.70;100.00
45541;BME280;31265;49.680;8.608;2023-03-04T03:48:08;101257.34;;;-1.86;100.00
45541;BME280;31265;49.680;8.608;2023-03-04T03:50:36;101247.09;;;-2.00;100.00
45541;BME280;31265;49.680;8.608;2023-03-04T03:53:07;101255.22;;;-2.09;100.00
45541;BME280;31265;49.680;8.608;2023-03-04T03:55:35;101259.16;;;-2.20;100.00
45541;BME280;31265;49.680;8.608;2023-03-04T03:58:05;101262.91;;;-2.26;100.00
45541;BME280;31265;49.680;8.608;2023-03-04T04:00:33;101257.63;;;-2.30;100.00
45541;BME280;31265;49.680;8.608;2023-03-04T04:03:02;101261.50;;;-2.40;100.00
45541;BME280;31265;49.680;8.608;2023-03-04T04:05:31;101255.78;;;-2.42;100.00
45541;BME280;31265;49.680;8.608;2023-03-04T04:08:01;101257.88;;;-2.46;100.00
45541;BME280;31265;49.680;8.608;2023-03-04T04:10:34;101267.03;;;-2.53;100.00
45541;BME280;31265;49.680;8.608;2023-03-04T04:13:02;101259.94;;;-2.60;100.00
45541;BME280;31265;49.680;8.608;2023-03-04T04:15:33;101260.50;;;-2.65;100.00
45541;BME280;31265;49.680;8.608;2023-03-04T04:18:03;101263.81;;;-2.70;100.00
45541;BME280;31265;49.680;8.608;2023-03-04T04:20:31;101258.66;;;-2.77;100.00
45541;BME280;31265;49.680;8.608;2023-03-04T04:23:00;101256.81;;;-2.80;100.00
45541;BME280;31265;49.680;8.608;2023-03-04T04:25:31;101256.50;;;-2.82;100.00
45541;BME280;31265;49.680;8.608;2023-03-04T04:28:01;101259.22;;;-2.82;100.00
45541;BME280;31265;49.680;8.608;2023-03-04T04:30:32;101263.31;;;-2.77;100.00
45541;BME280;31265;49.680;8.608;2023-03-04T04:33:01;101264.72;;;-2.73;100.00
45541;BME280;31265;49.680;8.608;2023-03-04T04:35:31;101268.38;;;-2.67;100.00
45541;BME280;31265;49.680;8.608;2023-03-04T04:38:00;101259.16;;;-2.60;100.00
45541;BME280;31265;49.680;8.608;2023-03-04T04:40:28;101259.97;;;-2.50;100.00
45541;BME280;31265;49.680;8.608;2023-03-04T04:42:57;101257.59;;;-2.39;100.00
45541;BME280;31265;49.680;8.608;2023-03-04T04:45:26;101263.81;;;-2.29;100.00
45541;BME280;31265;49.680;8.608;2023-03-04T04:47:56;101263.06;;;-2.21;100.00
45541;BME280;31265;49.680;8.608;2023-03-04T04:50:26;101260.94;;;-2.17;100.00
45541;BME280;31265;49.680;8.608;2023-03-04T04:52:57;101267.00;;;-2.12;100.00
45541;BME280;31265;49.680;8.608;2023-03-04T04:55:25;101263.97;;;-2.05;100.00
45541;BME280;31265;49.680;8.608;2023-03-04T04:58:04;101269.59;;;-2.00;100.00
45541;BME280;31265;49.680;8.608;2023-03-04T05:00:34;101267.34;;;-1.92;100.00
45541;BME280;31265;49.680;8.608;2023-03-04T05:03:02;101266.13;;;-1.91;100.00
45541;BME280;31265;49.680;8.608;2023-03-04T05:05:32;101272.19;;;-1.87;100.00
45541;BME280;31265;49.680;8.608;2023-03-04T05:08:00;101261.44;;;-1.81;100.00
45541;BME280;31265;49.680;8.608;2023-03-04T05:10:31;101263.09;;;-1.75;100.00
45541;BME280;31265;49.680;8.608;2023-03-04T05:13:02;101271.41;;;-1.69;100.00
45541;BME280;31265;49.680;8.608;2023-03-04T05:15:30;101267.78;;;-1.66;100.00
45541;BME280;31265;49.680;8.608;2023-03-04T05:18:01;101266.91;;;-1.63;100.00
45541;BME280;31265;49.680;8.608;2023-03-04T05:20:29;101277.94;;;-1.57;100.00
45541;BME280;31265;49.680;8.608;2023-03-04T05:22:57;101266.13;;;-1.54;100.00
45541;BME280;31265;49.680;8.608;2023-03-04T05:25:26;101262.94;;;-1.53;100.00
45541;BME280;31265;49.680;8.608;2023-03-04T05:27:54;101264.31;;;-1.48;100.00
45541;BME280;31265;49.680;8.608;2023-03-04T05:30:24;101267.03;;;-1.48;100.00
45541;BME280;31265;49.680;8.608;2023-03-04T05:32:52;101251.28;;;-1.44;100.00
45541;BME280;31265;49.680;8.608;2023-03-04T05:35:22;101262.66;;;-1.45;100.00
45541;BME280;31265;49.680;8.608;2023-03-04T05:37:53;101259.75;;;-1.42;100.00
45541;BME280;31265;49.680;8.608;2023-03-04T05:40:21;101262.16;;;-1.35;100.00
45541;BME280;31265;49.680;8.608;2023-03-04T05:42:52;101259.00;;;-1.33;100.00
45541;BME280;31265;49.680;8.608;2023-03-04T05:45:20;101262.47;;;-1.33;100.00
45541;BME280;31265;49.680;8.608;2023-03-04T05:47:48;101251.91;;;-1.40;100.00
45541;BME280;31265;49.680;8.608;2023-03-04T05:50:17;101256.91;;;-1.38;100.00
45541;BME280;31265;49.680;8.608;2023-03-04T05:52:48;101254.00;;;-1.35;100.00
45541;BME280;31265;49.680;8.608;2023-03-04T05:55:17;101251.88;;;-1.31;100.00
45541;BME280;31265;49.680;8.608;2023-03-04T05:57:46;101254.91;;;-1.28;100.00
45541;BME280;31265;49.680;8.608;2023-03-04T06:00:15;101260.94;;;-1.24;100.00
45541;BME280;31265;49.680;8.608;2023-03-04T06:02:44;101256.53;;;-1.22;100.00
45541;BME280;31265;49.680;8.608;2023-03-04T06:05:14;101259.44;;;-1.25;100.00
45541;BME280;31265;49.680;8.608;2023-03-04T06:07:43;101260.50;;;-1.23;100.00
45541;BME280;31265;49.680;8.608;2023-03-04T06:10:15;101270.03;;;-1.18;100.00
45541;BME280;31265;49.680;8.608;2023-03-04T06:12:43;101270.91;;;-1.12;100.00
45541;BME280;31265;49.680;8.608;2023-03-04T06:15:12;101281.94;;;-1.06;100.00
45541;BME280;31265;49.680;8.608;2023-03-04T06:17:41;101272.25;;;-1.08;100.00
45541;BME280;31265;49.680;8.608;2023-03-04T06:20:11;101277.84;;;-1.02;100.00
45541;BME280;31265;49.680;8.608;2023-03-04T06:22:39;101282.97;;;-1.04;100.00
45541;BME280;31265;49.680;8.608;2023-03-04T06:25:08;101289.50;;;-1.01;100.00
45541;BME280;31265;49.680;8.608;2023-03-04T06:27:40;101284.06;;;-1.01;100.00
45541;BME280;31265;49.680;8.608;2023-03-04T06:30:09;101288.72;;;-1.02;100.00
45541;BME280;31265;49.680;8.608;2023-03-04T06:32:38;101294.63;;;-0.94;100.00
45541;BME280;31265;49.680;8.608;2023-03-04T06:35:10;101294.47;;;-1.00;100.00
45541;BME280;31265;49.680;8.608;2023-03-04T06:37:38;101288.72;;;-1.02;100.00
45541;BME280;31265;49.680;8.608;2023-03-04T06:40:08;101301.13;;;-0.92;100.00
45541;BME280;31265;49.680;8.608;2023-03-04T06:42:37;101298.13;;;-0.94;100.00
45541;BME280;31265;49.680;8.608;2023-03-04T06:45:10;101296.28;;;-0.97;100.00
45541;BME280;31265;49.680;8.608;2023-03-04T06:47:38;101301.72;;;-0.97;100.00
45541;BME280;31265;49.680;8.608;2023-03-04T06:50:11;101313.84;;;-0.89;100.00
45541;BME280;31265;49.680;8.608;2023-03-04T06:52:40;101305.81;;;-0.92;100.00
45541;BME280;31265;49.680;8.608;2023-03-04T06:55:09;101314.41;;;-0.84;100.00
45541;BME280;31265;49.680;8.608;2023-03-04T06:57:39;101315.03;;;-0.80;100.00
45541;BME280;31265;49.680;8.608;2023-03-04T07:00:10;101319.09;;;-0.76;100.00
45541;BME280;31265;49.680;8.608;2023-03-04T07:02:39;101316.81;;;-0.77;100.00
45541;BME280;31265;49.680;8.608;2023-03-04T07:05:09;101315.31;;;-0.69;100.00
45541;BME280;31265;49.680;8.608;2023-03-04T07:07:37;101319.53;;;-0.68;100.00
45541;BME280;31265;49.680;8.608;2023-03-04T07:10:07;101326.78;;;-0.65;100.00
45541;BME280;31265;49.680;8.608;2023-03-04T07:12:36;101324.47;;;-0.57;100.00
45541;BME280;31265;49.680;8.608;2023-03-04T07:15:06;101325.44;;;-0.70;100.00
45541;BME280;31265;49.680;8.608;2023-03-04T07:17:36;101324.19;;;-0.59;100.00
45541;BME280;31265;49.680;8.608;2023-03-04T07:20:05;101332.66;;;-0.57;100.00
45541;BME280;31265;49.680;8.608;2023-03-04T07:22:35;101336.91;;;-0.56;100.00
45541;BME280;31265;49.680;8.608;2023-03-04T07:25:04;101335.88;;;-0.59;100.00
45541;BME280;31265;49.680;8.608;2023-03-04T07:27:33;101341.56;;;-0.48;100.00
45541;BME280;31265;49.680;8.608;2023-03-04T07:30:05;101339.31;;;-0.49;100.00
45541;BME280;31265;49.680;8.608;2023-03-04T07:32:33;101330.97;;;-0.55;100.00
45541;BME280;31265;49.680;8.608;2023-03-04T07:35:04;101332.63;;;-0.48;100.00
45541;BME280;31265;49.680;8.608;2023-03-04T07:37:33;101332.94;;;-0.46;100.00
45541;BME280;31265;49.680;8.608;2023-03-04T07:40:03;101342.00;;;-0.40;100.00
45541;BME280;31265;49.680;8.608;2023-03-04T07:42:34;101343.34;;;-0.35;100.00
45541;BME280;31265;49.680;8.608;2023-03-04T07:45:10;101348.13;;;-0.21;100.00
45541;BME280;31265;49.680;8.608;2023-03-04T07:47:42;101345.38;;;-0.12;100.00
45541;BME280;31265;49.680;8.608;2023-03-04T07:50:12;101345.38;;;-0.12;100.00
45541;BME280;31265;49.680;8.608;2023-03-04T07:52:45;101343.50;;;-0.06;100.00
45541;BME280;31265;49.680;8.608;2023-03-04T07:55:16;101343.53;;;-0.15;100.00
45541;BME280;31265;49.680;8.608;2023-03-04T07:57:47;101350.22;;;-0.16;100.00
45541;BME280;31265;49.680;8.608;2023-03-04T08:00:16;101349.13;;;-0.09;100.00
45541;BME280;31265;49.680;8.608;2023-03-04T08:02:45;101354.19;;;-0.17;100.00
45541;BME280;31265;49.680;8.608;2023-03-04T08:05:15;101354.41;;;-0.06;100.00
45541;BME280;31265;49.680;8.608;2023-03-04T08:07:45;101357.88;;;-0.05;100.00
45541;BME280;31265;49.680;8.608;2023-03-04T08:10:13;101351.44;;;0.07;100.00
45541;BME280;31265;49.680;8.608;2023-03-04T08:12:41;101348.34;;;0.24;100.00
45541;BME280;31265;49.680;8.608;2023-03-04T08:15:10;101350.13;;;0.27;100.00
45541;BME280;31265;49.680;8.608;2023-03-04T08:17:39;101349.38;;;0.26;100.00
45541;BME280;31265;49.680;8.608;2023-03-04T08:20:09;101358.44;;;0.32;100.00
45541;BME280;31265;49.680;8.608;2023-03-04T08:22:42;101353.50;;;0.46;100.00
45541;BME280;31265;49.680;8.608;2023-03-04T08:25:10;101354.56;;;0.63;100.00
45541;BME280;31265;49.680;8.608;2023-03-04T08:27:39;101353.47;;;0.70;100.00
45541;BME280;31265;49.680;8.608;2023-03-04T08:30:10;101349.91;;;0.54;100.00
45541;BME280;31265;49.680;8.608;2023-03-04T08:32:38;101353.69;;;0.57;100.00
45541;BME280;31265;49.680;8.608;2023-03-04T08:35:08;101356.72;;;0.59;100.00
45541;BME280;31265;49.680;8.608;2023-03-04T08:37:37;101361.50;;;0.49;100.00
45541;BME280;31265;49.680;8.608;2023-03-04T08:40:09;101357.88;;;0.67;100.00
45541;BME280;31265;49.680;8.608;2023-03-04T08:42:39;101366.94;;;0.88;100.00
45541;BME280;31265;49.680;8.608;2023-03-04T08:45:09;101370.56;;;0.94;100.00
45541;BME280;31265;49.680;8.608;2023-03-04T08:47:37;101364.13;;;0.82;100.00
45541;BME280;31265;49.680;8.608;2023-03-04T08:50:09;101366.50;;;0.90;100.00
45541;BME280;31265;49.680;8.608;2023-03-04T08:52:37;101363.41;;;0.97;100.00
45541;BME280;31265;49.680;8.608;2023-03-04T08:55:07;101361.69;;;0.99;100.00
45541;BME280;31265;49.680;8.608;2023-03-04T08:57:36;101362.84;;;1.07;100.00
45541;BME280;31265;49.680;8.608;2023-03-04T09:00:06;101362.53;;;0.91;100.00
45541;BME280;31265;49.680;8.608;2023-03-04T09:02:34;101370.16;;;1.16;100.00
45541;BME280;31265;49.680;8.608;2023-03-04T09:05:03;101367.84;;;1.39;100.00
45541;BME280;31265;49.680;8.608;2023-03-04T09:07:32;101361.50;;;1.47;100.00
45541;BME280;31265;49.680;8.608;2023-03-04T09:10:00;101362.81;;;1.52;100.00
45541;BME280;31265;49.680;8.608;2023-03-04T09:12:33;101366.75;;;1.81;100.00
45541;BME280;31265;49.680;8.608;2023-03-04T09:15:02;101374.81;;;1.90;100.00
45541;BME280;31265;49.680;8.608;2023-03-04T09:17:40;101370.53;;;2.04;100.00
45541;BME280;31265;49.680;8.608;2023-03-04T09:20:10;101365.09;;;1.89;100.00
45541;BME280;31265;49.680;8.608;2023-03-04T09:22:40;101366.66;;;2.10;100.00
45541;BME280;31265;49.680;8.608;2023-03-04T09:25:10;101362.66;;;2.11;100.00
45541;BME280;31265;49.680;8.608;2023-03-04T09:27:42;101362.75;;;1.82;100.00
45541;BME280;31265;49.680;8.608;2023-03-04T09:30:12;101359.41;;;1.92;100.00
45541;BME280;31265;49.680;8.608;2023-03-04T09:32:41;101363.28;;;2.21;100.00
45541;BME280;31265;49.680;8.608;2023-03-04T09:35:09;101361.66;;;2.29;100.00
45541;BME280;31265;49.680;8.608;2023-03-04T09:37:40;101363.16;;;2.30;100.00
45541;BME280;31265;49.680;8.608;2023-03-04T09:40:15;101357.75;;;2.15;100.00
45541;BME280;31265;49.680;8.608;2023-03-04T09:42:49;101354.97;;;2.30;100.00
45541;BME280;31265;49.680;8.608;2023-03-04T09:45:20;101360.63;;;2.47;100.00
45541;BME280;31265;49.680;8.608;2023-03-04T09:47:51;101356.16;;;2.70;100.00
45541;BME280;31265;49.680;8.608;2023-03-04T09:50:21;101365.41;;;2.73;100.00
45541;BME280;31265;49.680;8.608;2023-03-04T09:53:04;101365.94;;;2.77;100.00
45541;BME280;31265;49.680;8.608;2023-03-04T09:55:37;101364.59;;;2.93;100.00
45541;BME280;31265;49.680;8.608;2023-03-04T09:58:15;101355.03;;;3.09;100.00
45541;BME280;31265;49.680;8.608;2023-03-04T10:00:54;101358.53;;;3.09;100.00
45541;BME280;31265;49.680;8.608;2023-03-04T10:03:24;101357.25;;;3.05;100.00
45541;BME280;31265;49.680;8.608;2023-03-04T10:05:59;101358.31;;;3.13;100.00
45541;BME280;31265;49.680;8.608;2023-03-04T10:08:35;101364.59;;;3.19;100.00
45541;BME280;31265;49.680;8.608;2023-03-04T10:11:12;101370.63;;;3.23;100.00
45541;BME280;31265;49.680;8.608;2023-03-04T10:14:02;101373.84;;;2.95;100.00
45541;BME280;31265;49.680;8.608;2023-03-04T10:16:36;101367.44;;;2.78;100.00
45541;BME280;31265;49.680;8.608;2023-03-04T10:19:21;101362.50;;;2.82;100.00
45541;BME280;31265;49.680;8.608;2023-03-04T10:21:53;101358.84;;;3.17;100.00
45541;BME280;31265;49.680;8.608;2023-03-04T10:24:26;101364.44;;;3.28;100.00
45541;BME280;31265;49.680;8.608;2023-03-04T10:26:58;101371.50;;;3.40;100.00
45541;BME280;31265;49.680;8.608;2023-03-04T10:29:31;101367.44;;;3.30;100.00
45541;BME280;31265;49.680;8.608;2023-03-04T10:32:00;101364.06;;;3.15;100.00
45541;BME280;31265;49.680;8.608;2023-03-04T10:34:28;101369.47;;;3.35;100.00
45541;BME280;31265;49.680;8.608;2023-03-04T10:36:59;101369.75;;;3.37;100.00
45541;BME280;31265;49.680;8.608;2023-03-04T10:39:30;101363.69;;;3.28;100.00
45541;BME280;31265;49.680;8.608;2023-03-04T10:42:01;101358.91;;;3.54;100.00
45541;BME280;31265;49.680;8.608;2023-03-04T10:44:33;101364.56;;;3.45;100.00
45541;BME280;31265;49.680;8.608;2023-03-04T10:47:08;101362.50;;;3.34;100.00
45541;BME280;31265;49.680;8.608;2023-03-04T10:49:50;101351.72;;;3.62;100.00
45541;BME280;31265;49.680;8.608;2023-03-04T10:52:27;101348.56;;;3.75;100.00
45541;BME280;31265;49.680;8.608;2023-03-04T10:54:57;101350.78;;;3.71;100.00
45541;BME280;31265;49.680;8.608;2023-03-04T10:57:33;101346.09;;;3.83;100.00
45541;BME280;31265;49.680;8.608;2023-03-04T11:00:23;101346.19;;;3.94;100.00
45541;BME280;31265;49.680;8.608;2023-03-04T11:06:11;101338.09;;;3.74;100.00
45541;BME280;31265;49.680;8.608;2023-03-04T11:08:52;101340.28;;;4.13;100.00
45541;BME280;31265;49.680;8.608;2023-03-04T11:11:23;101337.56;;;4.18;100.00
45541;BME280;31265;49.680;8.608;2023-03-04T11:13:55;101332.09;;;4.29;100.00
45541;BME280;31265;49.680;8.608;2023-03-04T11:16:28;101329.34;;;4.24;100.00
45541;BME280;31265;49.680;8.608;2023-03-04T11:19:02;101325.53;;;4.10;100.00
45541;BME280;31265;49.680;8.608;2023-03-04T11:21:37;101319.28;;;4.09;100.00
45541;BME280;31265;49.680;8.608;2023-03-04T11:24:11;101318.09;;;4.27;100.00
45541;BME280;31265;49.680;8.608;2023-03-04T11:26:58;101319.09;;;4.19;100.00
45541;BME280;31265;49.680;8.608;2023-03-04T11:29:31;101322.19;;;4.43;100.00
45541;BME280;31265;49.680;8.608;2023-03-04T11:32:06;101315.44;;;4.50;100.00
45541;BME280;31265;49.680;8.608;2023-03-04T11:34:38;101314.25;;;4.68;100.00
45541;BME280;31265;49.680;8.608;2023-03-04T11:37:18;101312.25;;;4.74;100.00
45541;BME280;31265;49.680;8.608;2023-03-04T11:39:53;101303.75;;;4.89;100.00
45541;BME280;31265;49.680;8.608;2023-03-04T11:42:30;101306.72;;;4.57;100.00
45541;BME280;31265;49.680;8.608;2023-03-04T11:45:02;101304.44;;;4.44;100.00
45541;BME280;31265;49.680;8.608;2023-03-04T11:47:54;101298.22;;;4.61;100.00
45541;BME280;31265;49.680;8.608;2023-03-04T11:50:30;101302.50;;;4.73;100.00
45541;BME280;31265;49.680;8.608;2023-03-04T11:53:19;101293.72;;;4.58;100.00
45541;BME280;31265;49.680;8.608;2023-03-04T11:56:09;101290.94;;;4.52;100.00
45541;BME280;31265;49.680;8.608;2023-03-04T11:58:56;101283.44;;;4.41;100.00
45541;BME280;31265;49.680;8.608;2023-03-04T12:01:33;101283.19;;;4.45;100.00
45541;BME280;31265;49.680;8.608;2023-03-04T12:04:25;101284.59;;;4.18;100.00
45541;BME280;31265;49.680;8.608;2023-03-04T12:07:13;101289.69;;;4.42;100.00
45541;BME280;31265;49.680;8.608;2023-03-04T12:09:56;101276.16;;;4.27;100.00
45541;BME280;31265;49.680;8.608;2023-03-04T12:12:43;101273.88;;;4.14;100.00
45541;BME280;31265;49.680;8.608;2023-03-04T12:15:19;101277.69;;;4.45;100.00
45541;BME280;31265;49.680;8.608;2023-03-04T12:18:11;101277.47;;;4.48;100.00
45541;BME280;31265;49.680;8.608;2023-03-04T12:26:54;101271.19;;;4.31;100.00
45541;BME280;31265;49.680;8.608;2023-03-04T12:29:28;101264.22;;;4.47;100.00
45541;BME280;31265;49.680;8.608;2023-03-04T12:32:09;101258.72;;;4.41;100.00
45541;BME280;31265;49.680;8.608;2023-03-04T12:34:55;101258.91;;;4.21;100.00
45541;BME280;31265;49.680;8.608;2023-03-04T12:37:39;101260.19;;;4.25;100.00
45541;BME280;31265;49.680;8.608;2023-03-04T12:40:29;101261.94;;;4.40;100.00
45541;BME280;31265;49.680;8.608;2023-03-04T12:43:21;101254.47;;;4.51;100.00
45541;BME280;31265;49.680;8.608;2023-03-04T12:46:00;101248.97;;;4.40;100.00
45541;BME280;31265;49.680;8.608;2023-03-04T12:48:36;101243.38;;;4.06;100.00
45541;BME280;31265;49.680;8.608;2023-03-04T12:51:24;101238.16;;;4.14;100.00
45541;BME280;31265;49.680;8.608;2023-03-04T12:54:07;101250.88;;;4.06;100.00
45541;BME280;31265;49.680;8.608;2023-03-04T12:56:43;101244.84;;;4.02;100.00
45541;BME280;31265;49.680;8.608;2023-03-04T12:59:18;101243.84;;;3.99;100.00
45541;BME280;31265;49.680;8.608;2023-03-04T13:01:55;101232.13;;;3.99;100.00
45541;BME280;31265;49.680;8.608;2023-03-04T13:04:39;101238.44;;;4.22;100.00
45541;BME280;31265;49.680;8.608;2023-03-04T13:07:20;101241.91;;;4.11;100.00
45541;BME280;31265;49.680;8.608;2023-03-04T13:09:58;101228.38;;;4.07;100.00
45541;BME280;31265;49.680;8.608;2023-03-04T13:12:45;101229.88;;;4.03;100.00
45541;BME280;31265;49.680;8.608;2023-03-04T13:15:28;101229.66;;;4.06;100.00